Time;durP1;ratioP1;P1;durP2;ratioP2;P2;SDS_P1;SDS_P2;PMS_P1;PMS_P2;Temp;Humidity;BMP_temperature;BMP_pressure;BME280_temperature;BME280_humidity;BME280_pressure;Samples;Min_cycle;Max_cycle;Signal;HPM_P1;HPM_P2
2023/02/24 00:01:50;;;;;;;9.23;3.50;;;;;;;8.29;48.60;101095.16;5103158;28;20082;-72
2023/02/24 00:04:20;;;;;;;7.75;3.40;;;;;;;8.29;48.36;101100.59;5099673;28;20048;-71
2023/02/24 00:06:49;;;;;;;8.98;3.53;;;;;;;8.29;48.20;101092.44;5094791;28;20044;-68
2023/02/24 00:09:19;;;;;;;7.88;3.13;;;;;;;8.29;48.16;101097.88;5097937;28;20048;-72
2023/02/24 00:11:49;;;;;;;8.43;3.03;;;;;;;8.27;48.10;101083.47;5089551;28;20040;-72
2023/02/24 00:14:17;;;;;;;10.80;3.47;;;;;;;8.26;48.35;101081.75;5094390;28;20036;-72
2023/02/24 00:16:46;;;;;;;7.07;2.97;;;;;;;8.24;48.10;101081.88;5091767;28;20040;-71
2023/02/24 00:19:16;;;;;;;8.88;3.20;;;;;;;8.22;47.89;101078.38;5092140;28;20681;-68
2023/02/24 00:21:45;;;;;;;10.07;3.45;;;;;;;8.21;48.24;101079.38;5105788;28;20046;-72
2023/02/24 00:24:14;;;;;;;9.45;3.03;;;;;;;8.21;47.51;101075.75;5090630;28;20043;-70
2023/02/24 00:26:44;;;;;;;10.02;3.72;;;;;;;8.18;47.97;101068.69;5104197;28;20036;-72
2023/02/24 00:29:13;;;;;;;9.05;3.60;;;;;;;8.18;47.92;101059.63;5085743;28;20040;-72
2023/02/24 00:31:42;;;;;;;7.60;3.78;;;;;;;8.18;47.91;101056.91;5089835;28;20044;-72
2023/02/24 00:34:12;;;;;;;11.77;3.63;;;;;;;8.15;47.55;101054.41;5089295;28;20071;-72
2023/02/24 00:36:40;;;;;;;10.23;3.83;;;;;;;8.14;47.83;101052.69;5101244;28;20453;-71
2023/02/24 00:39:11;;;;;;;7.72;3.03;;;;;;;8.12;47.43;101044.56;5090288;28;20046;-72
2023/02/24 00:41:42;;;;;;;11.35;3.38;;;;;;;8.11;47.21;101041.94;5105787;28;20067;-70
2023/02/24 00:44:13;;;;;;;9.48;3.17;;;;;;;8.08;47.53;101043.06;5090110;28;20697;-72
2023/02/24 00:46:43;;;;;;;10.80;3.40;;;;;;;8.07;47.96;101040.47;5106485;28;20092;-72
2023/02/24 00:49:15;;;;;;;9.05;3.60;;;;;;;8.06;47.62;101041.44;5107453;28;20048;-72
2023/02/24 00:51:47;;;;;;;11.98;3.60;;;;;;;8.01;47.86;101041.78;5077579;28;20056;-70
2023/02/24 00:54:17;;;;;;;8.73;3.33;;;;;;;8.00;47.97;101036.44;5084202;28;20039;-72
2023/02/24 00:56:49;;;;;;;8.38;3.10;;;;;;;8.01;47.66;101030.03;5081348;28;20047;-72
2023/02/24 00:59:19;;;;;;;11.35;4.45;;;;;;;7.99;48.03;101023.81;5088608;28;20043;-73
2023/02/24 01:01:48;;;;;;;9.77;3.75;;;;;;;7.98;48.25;101020.19;5096260;28;20050;-73
2023/02/24 01:04:18;;;;;;;10.10;3.90;;;;;;;7.98;47.90;101011.16;5092572;28;20044;-72
2023/02/24 01:06:49;;;;;;;8.27;3.28;;;;;;;7.97;47.71;101013.00;5074628;28;20048;-72
2023/02/24 01:09:18;;;;;;;10.15;3.95;;;;;;;7.96;47.95;101008.53;5096349;28;20044;-72
2023/02/24 01:12:37;;;;;;;9.30;3.83;;;;;;;7.97;47.66;101010.28;5091432;28;20110;-70
2023/02/24 01:14:51;;;;;;;12.98;4.35;;;;;;;7.93;47.73;101017.81;5089825;28;20526;-72
2023/02/24 01:17:20;;;;;;;14.13;4.47;;;;;;;7.94;47.98;101019.53;5097245;28;20093;-71
2023/02/24 01:19:49;;;;;;;9.25;4.22;;;;;;;7.94;48.17;101014.09;5101617;28;20144;-73
2023/02/24 01:22:19;;;;;;;11.40;4.43;;;;;;;7.94;47.83;101007.78;5086211;28;20529;-73
2023/02/24 01:24:48;;;;;;;11.25;3.78;;;;;;;7.94;47.90;101010.50;5077284;28;20059;-70
2023/02/24 01:27:18;;;;;;;12.63;4.03;;;;;;;7.94;48.01;101011.38;5104510;28;20142;-71
2023/02/24 01:29:47;;;;;;;11.13;3.70;;;;;;;7.92;47.65;101005.19;5073643;28;20680;-70
2023/02/24 01:32:17;;;;;;;9.48;3.60;;;;;;;7.92;47.62;101007.91;5081442;28;20055;-73
2023/02/24 01:34:47;;;;;;;9.35;3.65;;;;;;;7.93;47.90;101000.56;5083802;28;20070;-73
2023/02/24 01:37:15;;;;;;;9.25;3.40;;;;;;;7.92;47.72;100998.88;5097927;28;20040;-73
2023/02/24 01:39:44;;;;;;;9.02;3.17;;;;;;;7.91;47.32;100998.00;5098486;28;20424;-70
2023/02/24 01:42:18;;;;;;;10.02;3.47;;;;;;;7.92;47.67;101001.59;5108500;28;20052;-73
2023/02/24 01:45:13;;;;;;;11.90;3.92;;;;;;;7.88;47.02;100994.63;5097204;28;20031;-73
2023/02/24 01:47:43;;;;;;;12.02;3.90;;;;;;;7.87;47.18;100996.47;5086543;28;20604;-70
2023/02/24 01:50:14;;;;;;;15.98;4.47;;;;;;;7.87;47.32;100991.00;5092681;28;20130;-69
2023/02/24 01:52:45;;;;;;;10.13;3.85;;;;;;;7.87;47.52;100984.69;5112148;28;20525;-70
2023/02/24 01:55:18;;;;;;;12.45;3.70;;;;;;;7.87;47.53;100980.13;5090398;28;20583;-72
2023/02/24 01:57:48;;;;;;;10.05;3.28;;;;;;;7.86;47.78;100975.66;5087913;28;20099;-72
2023/02/24 02:00:36;;;;;;;7.40;3.00;;;;;;;7.86;47.29;100982.94;5078784;28;20044;-71
2023/02/24 02:03:10;;;;;;;9.38;2.85;;;;;;;7.83;47.27;100975.91;5093606;28;20089;-71
2023/02/24 02:05:40;;;;;;;10.80;3.70;;;;;;;7.83;47.45;100972.28;5110901;28;20101;-71
2023/02/24 02:08:10;;;;;;;8.50;4.10;;;;;;;7.83;47.44;100981.34;5100129;28;20526;-69
2023/02/24 02:10:39;;;;;;;11.40;3.78;;;;;;;7.83;47.23;100980.47;5075827;28;20048;-70
2023/02/24 02:13:07;;;;;;;13.00;2.90;;;;;;;7.81;47.57;100974.25;5103826;28;20050;-72
2023/02/24 02:15:47;;;;;;;11.82;3.25;;;;;;;7.83;46.77;100975.91;5100618;28;20040;-72
2023/02/24 02:18:25;;;;;;;10.18;3.72;;;;;;;7.81;47.18;100968.81;5081205;28;20105;-68
2023/02/24 02:21:36;;;;;;;10.52;3.70;;;;;;;7.76;46.35;100971.88;5082881;22;20131;-75
2023/02/24 02:24:20;;;;;;;8.07;3.33;;;;;;;7.77;47.03;100959.97;5048282;28;20044;-76
2023/02/24 02:27:18;;;;;;;9.27;2.83;;;;;;;7.76;46.88;100951.94;5066173;28;20076;-75
2023/02/24 02:30:23;;;;;;;11.73;2.78;;;;;;;7.72;46.75;100934.94;5050627;28;20048;-75
2023/02/24 02:33:30;;;;;;;9.57;3.28;;;;;;;7.72;46.39;100939.53;5043715;28;20534;-75
2023/02/24 02:36:12;;;;;;;9.25;3.33;;;;;;;7.71;46.88;100929.59;5016065;28;20123;-76
2023/02/24 02:38:51;;;;;;;10.60;3.30;;;;;;;7.69;46.91;100937.00;5069338;28;20106;-75
2023/02/24 02:41:27;;;;;;;12.13;3.00;;;;;;;7.69;46.52;100924.25;5076708;28;20052;-75
2023/02/24 02:44:07;;;;;;;7.57;3.03;;;;;;;7.69;46.89;100913.38;5071792;28;20041;-76
2023/02/24 02:46:41;;;;;;;10.95;3.92;;;;;;;7.66;46.96;100913.63;5069098;28;20098;-76
2023/02/24 02:49:16;;;;;;;11.93;3.67;;;;;;;7.66;46.83;100901.84;5048187;28;20120;-75
2023/02/24 02:51:51;;;;;;;11.65;3.20;;;;;;;7.64;46.77;100901.97;5071001;28;20032;-75
2023/02/24 02:54:27;;;;;;;10.30;3.10;;;;;;;7.65;46.67;100900.97;5074426;28;20379;-75
2023/02/24 02:57:02;;;;;;;11.40;3.75;;;;;;;7.63;46.81;100896.63;5051453;28;20041;-75
2023/02/24 02:59:33;;;;;;;8.75;2.92;;;;;;;7.62;46.78;100894.88;5068176;28;20097;-76
2023/02/24 03:02:13;;;;;;;10.73;3.17;;;;;;;7.60;47.02;100891.41;5074695;28;20044;-76
2023/02/24 03:04:51;;;;;;;8.77;3.00;;;;;;;7.60;46.31;100886.81;5039573;28;20094;-75
2023/02/24 03:07:29;;;;;;;9.68;3.55;;;;;;;7.60;46.86;100885.97;5064864;28;20049;-76
2023/02/24 03:10:02;;;;;;;9.80;3.20;;;;;;;7.58;46.98;100886.09;5071545;28;20545;-75
2023/02/24 03:12:32;;;;;;;9.80;2.60;;;;;;;7.54;46.86;100879.97;5057292;28;20049;-77
2023/02/24 03:15:06;;;;;;;9.63;2.95;;;;;;;7.57;46.86;100881.63;5068722;28;20048;-76
2023/02/24 03:17:40;;;;;;;8.65;3.58;;;;;;;7.55;46.79;100878.13;5068813;28;20119;-75
2023/02/24 03:20:16;;;;;;;8.63;3.10;;;;;;;7.55;46.81;100876.28;5059553;28;20059;-75
2023/02/24 03:22:50;;;;;;;9.38;3.08;;;;;;;7.55;46.83;100878.13;5069141;28;20052;-75
2023/02/24 03:25:23;;;;;;;10.30;3.88;;;;;;;7.53;47.06;100867.34;5062583;28;20041;-76
2023/02/24 03:27:56;;;;;;;9.95;3.30;;;;;;;7.51;46.93;100869.34;5066555;28;20045;-76
2023/02/24 03:30:29;;;;;;;8.38;2.95;;;;;;;7.51;46.87;100868.47;5070639;28;20049;-76
2023/02/24 03:33:04;;;;;;;9.80;3.65;;;;;;;7.50;46.51;100869.44;5068260;28;20079;-76
2023/02/24 03:35:36;;;;;;;9.52;3.58;;;;;;;7.51;47.00;100865.75;5049786;28;20127;-76
2023/02/24 03:38:06;;;;;;;10.27;3.30;;;;;;;7.48;46.39;100866.84;5066394;28;20072;-75
2023/02/24 03:40:34;;;;;;;7.72;3.28;;;;;;;7.49;47.01;100870.44;5054422;28;20057;-75
2023/02/24 03:43:08;;;;;;;11.65;3.88;;;;;;;7.48;46.69;100861.38;5049991;28;20074;-75
2023/02/24 03:45:37;;;;;;;8.18;3.35;;;;;;;7.48;46.63;100855.94;5062902;28;20472;-75
2023/02/24 03:48:08;;;;;;;10.75;3.60;;;;;;;7.47;46.53;100859.63;5065875;28;20044;-75
2023/02/24 03:50:39;;;;;;;9.65;3.10;;;;;;;7.46;46.61;100855.19;5046682;28;20052;-75
2023/02/24 03:53:34;;;;;;;8.98;2.95;;;;;;;7.48;45.98;100855.06;5048681;28;20044;-75
2023/02/24 03:56:16;;;;;;;7.13;2.67;;;;;;;7.46;46.44;100855.19;5044755;28;20063;-75
2023/02/24 03:58:58;;;;;;;11.48;3.70;;;;;;;7.46;46.33;100854.31;5046481;28;20393;-75
2023/02/24 04:01:33;;;;;;;;;;;;;;;7.19;47.05;100863.53;5050188;28;20044;-76
2023/02/24 04:04:07;;;;;;;9.80;2.90;;;;;;;7.38;46.79;100857.59;5051132;28;19998;-76
2023/02/24 04:06:55;;;;;;;7.20;2.42;;;;;;;7.41;46.39;100851.06;5061467;28;20044;-76
2023/02/24 04:09:32;;;;;;;8.43;2.90;;;;;;;7.43;46.33;100854.56;5062556;28;20037;-76
2023/02/24 04:12:13;;;;;;;8.70;2.80;;;;;;;7.41;46.78;100849.22;5071654;28;20071;-76
2023/02/24 04:14:50;;;;;;;9.57;3.28;;;;;;;7.41;46.38;100851.06;5047677;28;20091;-75
2023/02/24 04:17:22;;;;;;;8.82;3.75;;;;;;;7.40;46.81;100852.91;5049941;28;20045;-76
2023/02/24 04:19:57;;;;;;;10.75;3.10;;;;;;;7.40;46.52;100844.75;5064862;28;20122;-76
2023/02/24 04:22:28;;;;;;;9.43;3.47;;;;;;;7.39;46.85;100840.28;5068173;28;20488;-76
2023/02/24 04:25:00;;;;;;;11.65;3.42;;;;;;;7.38;46.18;100838.53;5073665;28;20048;-76
2023/02/24 04:27:29;;;;;;;9.80;3.35;;;;;;;7.37;46.90;100839.53;5049977;28;20045;-76
2023/02/24 04:30:11;;;;;;;9.98;3.58;;;;;;;7.37;46.65;100841.38;5069068;28;20129;-76
2023/02/24 04:32:41;;;;;;;8.95;3.28;;;;;;;7.36;46.72;100837.78;5049958;28;20052;-75
2023/02/24 04:35:13;;;;;;;8.82;3.72;;;;;;;7.37;46.23;100839.53;5069272;28;20071;-76
2023/02/24 04:37:44;;;;;;;8.23;3.45;;;;;;;7.35;46.67;100835.19;5060821;28;20052;-76
2023/02/24 04:40:17;;;;;;;10.05;3.15;;;;;;;7.36;46.27;100836.91;5069528;28;20567;-76
2023/02/24 04:42:48;;;;;;;10.80;3.63;;;;;;;7.33;46.29;100829.84;5059458;28;20131;-76
2023/02/24 04:45:17;;;;;;;8.23;3.28;;;;;;;7.33;46.53;100821.69;5064399;28;20044;-75
2023/02/24 04:47:48;;;;;;;7.60;2.65;;;;;;;7.34;46.67;100830.72;5058722;28;20041;-75
2023/02/24 04:50:22;;;;;;;10.05;2.83;;;;;;;7.32;46.69;100819.94;5058527;28;20063;-76
2023/02/24 04:52:51;;;;;;;7.78;2.90;;;;;;;7.30;46.13;100819.19;5062462;28;20044;-75
2023/02/24 04:55:24;;;;;;;7.18;2.50;;;;;;;7.31;46.36;100804.59;5061953;28;20056;-75
2023/02/24 04:57:53;;;;;;;9.07;2.65;;;;;;;7.28;46.10;100817.56;5070275;28;20032;-76
2023/02/24 05:00:21;;;;;;;8.95;2.60;;;;;;;7.27;46.16;100810.41;5058762;28;20106;-76
2023/02/24 05:02:50;;;;;;;8.23;2.67;;;;;;;7.26;46.12;100809.53;5065886;28;20053;-75
2023/02/24 05:05:24;;;;;;;6.95;2.45;;;;;;;7.26;46.08;100808.66;5064277;28;20045;-75
2023/02/24 05:07:53;;;;;;;5.55;2.28;;;;;;;7.24;46.04;100805.16;5049537;28;20044;-76
2023/02/24 05:10:26;;;;;;;8.23;2.67;;;;;;;7.23;45.80;100797.97;5071148;28;20036;-75
2023/02/24 05:12:56;;;;;;;6.15;2.15;;;;;;;7.19;45.99;100798.19;5062591;28;20051;-76
2023/02/24 05:15:30;;;;;;;8.77;2.60;;;;;;;7.19;45.99;100800.91;5069744;28;20091;-75
2023/02/24 05:17:59;;;;;;;6.38;2.22;;;;;;;7.18;46.42;100795.63;5056692;28;20045;-76
2023/02/24 05:23:15;;;;;;;8.10;2.20;;;;;;;7.13;46.04;100790.50;5056647;28;20040;-76
2023/02/24 05:25:45;;;;;;;9.43;2.58;;;;;;;7.14;46.12;100784.06;5064019;28;20258;-75
2023/02/24 05:28:13;;;;;;;7.53;2.28;;;;;;;7.11;45.91;100787.00;5062613;28;20095;-76
2023/02/24 05:30:40;;;;;;;6.95;2.60;;;;;;;7.11;46.11;100778.84;5055887;28;20051;-75
2023/02/24 05:33:09;;;;;;;6.78;2.20;;;;;;;7.10;46.04;100785.31;5061195;28;20510;-75
2023/02/24 05:35:37;;;;;;;5.57;2.25;;;;;;;7.09;46.18;100783.56;5062063;28;20052;-75
2023/02/24 05:38:07;;;;;;;5.88;1.83;;;;;;;7.08;45.74;100776.38;5067464;28;20506;-76
2023/02/24 05:40:35;;;;;;;7.60;1.90;;;;;;;7.07;46.16;100779.22;5046177;28;20454;-75
2023/02/24 05:43:04;;;;;;;7.13;2.17;;;;;;;7.07;46.00;100782.81;5067912;28;20442;-76
2023/02/24 05:45:33;;;;;;;6.70;1.85;;;;;;;7.07;45.71;100781.94;5061228;28;20059;-75
2023/02/24 05:48:04;;;;;;;7.53;2.03;;;;;;;7.05;46.04;100767.56;5067306;28;20040;-76
2023/02/24 05:50:32;;;;;;;5.63;1.75;;;;;;;7.04;46.15;100774.84;5061686;28;20468;-75
2023/02/24 05:53:02;;;;;;;7.63;1.85;;;;;;;7.03;45.77;100764.94;5062522;28;20037;-75
2023/02/24 05:55:30;;;;;;;7.75;2.08;;;;;;;7.02;45.80;100759.66;5061353;28;20056;-76
2023/02/24 05:57:59;;;;;;;6.22;2.17;;;;;;;7.00;46.27;100754.31;5064187;28;20041;-75
2023/02/24 06:00:28;;;;;;;7.18;2.13;;;;;;;7.00;45.79;100757.03;5061187;28;20033;-75
2023/02/24 06:03:07;;;;;;;5.43;1.92;;;;;;;6.99;45.85;100748.97;5061424;28;20056;-76
2023/02/24 06:05:38;;;;;;;6.57;2.00;;;;;;;6.97;46.14;100746.38;5051606;28;20055;-76
2023/02/24 06:08:10;;;;;;;5.55;1.85;;;;;;;6.97;46.13;100751.81;5063649;28;20037;-75
2023/02/24 06:10:40;;;;;;;7.75;2.20;;;;;;;6.96;45.75;100741.91;5060350;28;20068;-76
2023/02/24 06:13:09;;;;;;;5.57;1.85;;;;;;;6.96;46.24;100747.34;5058071;28;20458;-75
2023/02/24 06:15:40;;;;;;;7.75;2.15;;;;;;;6.96;46.01;100733.75;5065946;28;20059;-76
2023/02/24 06:18:10;;;;;;;7.15;2.53;;;;;;;6.95;46.29;100740.16;5062852;28;20049;-76
2023/02/24 06:20:39;;;;;;;5.47;2.40;;;;;;;6.95;45.78;100733.84;5052554;28;20546;-76
2023/02/24 06:23:07;;;;;;;8.88;2.50;;;;;;;6.95;45.86;100740.16;5069526;28;20048;-75
2023/02/24 06:25:37;;;;;;;7.28;2.45;;;;;;;6.94;45.78;100732.97;5058254;28;20072;-76
2023/02/24 06:28:05;;;;;;;9.73;2.67;;;;;;;6.94;46.02;100734.84;5045699;28;20053;-75
2023/02/24 06:30:33;;;;;;;5.88;2.42;;;;;;;6.93;45.94;100727.69;5057715;28;20044;-75
2023/02/24 06:33:04;;;;;;;8.35;2.83;;;;;;;6.95;45.44;100731.13;5049283;28;20131;-75
2023/02/24 06:35:32;;;;;;;9.75;3.63;;;;;;;6.93;45.95;100724.97;5051665;28;20037;-75
2023/02/24 06:38:00;;;;;;;10.52;3.35;;;;;;;6.92;45.62;100717.78;5052745;28;20134;-75
2023/02/24 06:40:30;;;;;;;9.93;3.17;;;;;;;6.91;45.73;100725.06;5069185;28;20507;-75
2023/02/24 06:42:58;;;;;;;7.25;2.50;;;;;;;6.91;45.59;100730.50;5065444;28;20053;-75
2023/02/24 06:45:25;;;;;;;9.07;2.60;;;;;;;6.90;45.61;100734.19;5064490;28;20053;-75
2023/02/24 06:47:53;;;;;;;7.75;3.00;;;;;;;6.90;45.57;100728.75;5060518;28;20040;-75
2023/02/24 06:50:23;;;;;;;5.13;2.60;;;;;;;6.91;45.60;100722.34;5065132;28;20041;-75
2023/02/24 06:52:54;;;;;;;9.95;2.72;;;;;;;6.89;45.80;100727.03;5072926;28;20048;-75
2023/02/24 06:55:25;;;;;;;7.40;2.58;;;;;;;6.89;45.84;100720.72;5069975;28;20072;-76
2023/02/24 06:57:56;;;;;;;7.55;2.33;;;;;;;6.89;45.53;100718.84;5071005;28;20396;-75
2023/02/24 07:00:35;;;;;;;7.75;2.03;;;;;;;6.89;45.75;100723.44;5068103;28;20143;-76
2023/02/24 07:03:13;;;;;;;8.00;2.70;;;;;;;6.89;45.74;100718.84;5054245;28;20052;-76
2023/02/24 07:05:49;;;;;;;7.50;2.92;;;;;;;6.89;45.63;100721.59;5063195;28;20416;-75
2023/02/24 07:08:22;;;;;;;7.07;3.42;;;;;;;6.91;45.43;100718.75;5067275;28;20068;-76
2023/02/24 07:10:54;;;;;;;8.60;3.05;;;;;;;6.91;44.93;100716.03;5069299;28;20102;-75
2023/02/24 07:13:24;;;;;;;6.67;2.73;;;;;;;6.88;45.76;100713.53;5074670;28;20045;-75
2023/02/24 07:15:52;;;;;;;7.43;3.10;;;;;;;6.89;45.54;100709.81;5069565;28;20040;-75
2023/02/24 07:18:20;;;;;;;8.27;3.10;;;;;;;6.90;45.39;100706.13;5069945;28;20040;-74
2023/02/24 07:20:50;;;;;;;7.28;2.72;;;;;;;6.91;45.34;100707.88;5055167;28;20253;-74
2023/02/24 07:23:19;;;;;;;7.35;3.00;;;;;;;6.90;45.48;100708.84;5062584;28;20052;-75
2023/02/24 07:25:47;;;;;;;7.00;2.55;;;;;;;6.90;45.35;100703.41;5063045;28;20122;-75
2023/02/24 07:28:17;;;;;;;7.45;2.95;;;;;;;6.89;45.60;100699.81;5065804;28;20041;-75
2023/02/24 07:30:45;;;;;;;6.70;2.30;;;;;;;6.90;45.65;100703.41;5047430;28;20114;-75
2023/02/24 07:33:14;;;;;;;6.72;2.47;;;;;;;6.91;45.34;100697.00;5060834;28;20456;-75
2023/02/24 07:35:42;;;;;;;7.50;2.50;;;;;;;6.90;45.21;100689.81;5061584;28;20044;-74
2023/02/24 07:38:15;;;;;;;8.13;2.63;;;;;;;6.92;45.10;100690.56;5064146;28;20610;-75
2023/02/24 07:40:46;;;;;;;6.25;2.90;;;;;;;6.91;45.54;100691.53;5063070;28;20055;-72
2023/02/24 07:43:14;;;;;;;6.32;2.72;;;;;;;6.91;45.03;100684.25;5054712;28;20044;-74
2023/02/24 07:45:46;;;;;;;7.28;2.47;;;;;;;6.91;45.05;100673.38;5051442;28;20054;-75
2023/02/24 07:48:14;;;;;;;6.45;2.25;;;;;;;6.91;45.18;100675.22;5069538;28;20056;-74
2023/02/24 07:50:42;;;;;;;6.97;2.47;;;;;;;6.91;45.14;100673.38;5069340;28;20049;-75
2023/02/24 07:53:11;;;;;;;9.02;2.20;;;;;;;6.91;45.18;100662.50;5065043;28;20414;-74
2023/02/24 07:55:40;;;;;;;6.72;2.38;;;;;;;6.90;44.97;100659.88;5067732;28;20053;-75
2023/02/24 07:58:09;;;;;;;7.05;2.40;;;;;;;6.90;44.85;100658.03;5066181;28;20048;-74
2023/02/24 08:00:58;;;;;;;7.22;2.53;;;;;;;6.90;44.91;100651.72;5069212;28;20041;-75
2023/02/24 08:03:28;;;;;;;6.80;2.55;;;;;;;6.90;45.07;100655.31;5051995;28;20044;-75
2023/02/24 08:06:11;;;;;;;7.25;2.50;;;;;;;6.91;45.20;100654.34;5058670;28;20049;-75
2023/02/24 08:08:56;;;;;;;;;;;;;;;6.66;45.39;100640.81;5054465;28;20045;-75
2023/02/24 08:11:26;;;;;;;6.18;2.20;;;;;;;6.87;45.30;100647.38;5070140;28;19955;-75
2023/02/24 08:13:56;;;;;;;6.07;2.50;;;;;;;6.90;45.40;100649.00;5069176;28;20040;-75
2023/02/24 08:16:33;;;;;;;6.50;2.65;;;;;;;6.91;45.21;100646.16;5069619;28;20044;-75
2023/02/24 08:19:06;;;;;;;7.70;2.60;;;;;;;6.90;44.99;100638.13;5068550;28;20051;-75
2023/02/24 08:21:37;;;;;;;7.30;2.55;;;;;;;6.91;45.31;100640.72;5071707;22;20052;-81
2023/02/24 08:24:08;;;;;;;8.27;2.50;;;;;;;6.91;44.74;100634.41;5072083;28;20070;-79
2023/02/24 08:26:43;;;;;;;8.30;2.60;;;;;;;6.90;44.90;100627.22;5070965;28;20048;-79
2023/02/24 08:29:11;;;;;;;6.18;2.40;;;;;;;6.90;44.81;100630.81;5061715;28;20067;-79
2023/02/24 08:31:40;;;;;;;6.07;2.20;;;;;;;6.88;44.73;100621.91;5075900;28;20101;-79
2023/02/24 08:34:14;;;;;;;5.55;2.25;;;;;;;6.87;45.04;100620.16;5073715;28;20036;-79
2023/02/24 08:36:47;;;;;;;5.78;2.38;;;;;;;6.84;44.95;100611.38;5076376;28;20144;-79
2023/02/24 08:39:18;;;;;;;7.45;2.33;;;;;;;6.85;44.78;100608.56;5087212;28;20041;-79
2023/02/24 08:41:50;;;;;;;7.40;2.53;;;;;;;6.82;44.82;100598.78;5080368;28;20071;-79
2023/02/24 08:44:19;;;;;;;6.38;2.58;;;;;;;6.85;44.91;100600.41;5068607;28;20448;-80
2023/02/24 08:46:51;;;;;;;8.88;2.83;;;;;;;6.83;44.47;100594.19;5074421;28;20052;-80
2023/02/24 08:49:23;;;;;;;6.10;3.00;;;;;;;6.84;44.42;100593.22;5071897;28;20093;-80
2023/02/24 08:51:52;;;;;;;6.50;2.90;;;;;;;6.81;44.55;100597.03;5091457;28;20051;-80
2023/02/24 08:54:25;;;;;;;7.45;2.67;;;;;;;6.82;44.31;100584.31;5072252;28;20044;-80
2023/02/24 08:56:56;;;;;;;6.30;2.80;;;;;;;6.80;44.46;100592.56;5068104;28;20070;-80
2023/02/24 08:59:36;;;;;;;6.25;2.67;;;;;;;6.80;44.70;100589.84;5080618;28;20052;-80
2023/02/24 09:02:23;;;;;;;5.65;2.45;;;;;;;6.80;44.69;100583.53;5061549;28;20496;-80
2023/02/24 09:04:52;;;;;;;8.20;3.10;;;;;;;6.78;44.86;100580.94;5068869;28;20040;-79
2023/02/24 09:07:23;;;;;;;6.25;2.47;;;;;;;6.79;44.55;100574.50;5082143;28;20032;-79
2023/02/24 09:09:55;;;;;;;6.10;2.72;;;;;;;6.80;44.45;100568.09;5066443;28;20044;-80
2023/02/24 09:12:25;;;;;;;7.05;2.95;;;;;;;6.81;44.27;100566.25;5091147;28;20044;-80
2023/02/24 09:14:56;;;;;;;6.88;2.78;;;;;;;6.80;44.00;100569.94;5072530;28;20529;-80
2023/02/24 09:17:39;;;;;;;8.88;2.47;;;;;;;6.81;44.38;100564.38;5088044;28;20568;-82
2023/02/24 09:20:54;;;;;;;6.70;2.88;;;;;;;6.80;44.33;100564.50;5076691;28;20525;-81
2023/02/24 09:23:18;;;;;;;6.85;2.30;;;;;;;6.78;44.19;100561.03;5073213;28;20089;-79
2023/02/24 09:25:53;;;;;;;6.57;2.30;;;;;;;6.80;44.34;100559.94;5084514;28;20051;-80
2023/02/24 09:28:24;;;;;;;6.03;2.30;;;;;;;6.80;44.18;100551.78;5092703;28;20503;-80
2023/02/24 09:30:54;;;;;;;6.70;2.03;;;;;;;6.82;44.23;100557.97;5083793;28;20510;-80
2023/02/24 09:33:25;;;;;;;7.43;2.10;;;;;;;6.84;43.59;100551.53;5075841;28;20493;-80
2023/02/24 09:36:09;;;;;;;6.90;2.00;;;;;;;6.85;43.76;100542.41;5085668;28;20056;-81
2023/02/24 09:41:44;;;;;;;5.15;2.08;;;;;;;6.85;42.78;100547.84;5074631;28;20048;-79
2023/02/24 09:44:17;;;;;;;4.85;1.70;;;;;;;6.84;43.09;100544.25;5089393;28;20483;-80
2023/02/24 09:46:53;;;;;;;5.00;1.73;;;;;;;6.86;43.23;100541.41;5091973;28;20470;-79
2023/02/24 09:49:38;;;;;;;5.93;2.00;;;;;;;6.86;42.90;100533.25;5072869;28;20062;-80
2023/02/24 09:52:15;;;;;;;3.80;1.80;;;;;;;6.85;42.68;100517.94;5074549;28;20040;-79
2023/02/24 09:55:17;;;;;;;4.50;1.83;;;;;;;6.84;43.17;100516.19;5072775;28;20052;-79
2023/02/24 10:00:37;;;;;;;5.90;1.70;;;;;;;6.82;42.96;100516.31;5078859;28;20058;-79
2023/02/24 10:03:19;;;;;;;5.72;1.70;;;;;;;6.82;41.92;100516.31;5072045;28;20062;-80
2023/02/24 10:05:57;;;;;;;5.00;1.70;;;;;;;6.84;42.05;100513.47;5068076;28;20098;-79
2023/02/24 10:08:34;;;;;;;4.45;1.70;;;;;;;6.81;41.92;100507.28;5092655;28;20399;-81
2023/02/24 10:11:06;;;;;;;5.10;1.65;;;;;;;6.79;42.65;100505.66;5090161;28;20093;-80
2023/02/24 10:13:42;;;;;;;4.85;1.50;;;;;;;6.78;42.44;100503.91;5094190;28;20062;-80
2023/02/24 10:16:22;;;;;;;5.38;1.92;;;;;;;6.80;42.32;100505.53;5088442;28;20040;-80
2023/02/24 10:19:13;;;;;;;6.43;1.88;;;;;;;6.78;42.66;100499.34;5072654;28;20447;-80
2023/02/24 10:21:59;;;;;;;7.47;1.90;;;;;;;6.79;42.15;100487.47;5059537;28;20525;-80
2023/02/24 10:24:34;;;;;;;6.03;1.92;;;;;;;6.79;42.53;100481.16;5095522;28;20032;-81
2023/02/24 10:27:08;;;;;;;5.88;2.10;;;;;;;6.81;41.76;100477.34;5077281;28;20071;-80
2023/02/24 10:30:03;;;;;;;3.70;1.55;;;;;;;6.81;41.36;100477.34;5088219;28;20051;-80
2023/02/24 10:32:40;;;;;;;6.88;2.45;;;;;;;6.81;41.61;100466.47;5095647;28;20089;-80
2023/02/24 10:35:15;;;;;;;6.13;2.35;;;;;;;6.81;41.85;100474.63;5089785;28;20056;-80
2023/02/24 10:37:43;;;;;;;6.70;2.60;;;;;;;6.79;42.67;100470.28;5087884;28;20127;-80
2023/02/24 10:40:23;;;;;;;7.18;2.58;;;;;;;6.81;42.74;100468.31;5078395;28;20032;-80
2023/02/24 10:43:03;;;;;;;5.47;2.38;;;;;;;6.79;42.49;100465.72;5079500;28;20048;-81
2023/02/24 10:45:43;;;;;;;7.88;2.58;;;;;;;6.82;42.05;100456.47;5078091;28;20694;-81
2023/02/24 10:48:23;;;;;;;5.80;2.53;;;;;;;6.82;42.00;100456.47;5096357;28;20032;-80
2023/02/24 10:51:18;;;;;;;8.73;3.08;;;;;;;6.81;42.20;100461.03;5070082;28;20511;-80
2023/02/24 10:54:08;;;;;;;6.28;2.53;;;;;;;6.81;42.10;100447.44;5068721;28;20048;-81
2023/02/24 10:56:54;;;;;;;7.70;2.78;;;;;;;6.81;42.14;100438.41;5084761;28;20047;-80
2023/02/24 10:59:47;;;;;;;6.55;2.30;;;;;;;6.78;42.47;100446.78;5090565;28;20044;-80
2023/02/24 11:02:31;;;;;;;8.82;2.70;;;;;;;6.76;42.51;100446.94;5095151;28;20086;-80
2023/02/24 11:05:23;;;;;;;4.88;2.33;;;;;;;6.78;42.38;100452.22;5094440;28;20136;-79
2023/02/24 11:08:06;;;;;;;6.95;3.20;;;;;;;6.76;41.71;100446.94;5071221;28;20036;-79
2023/02/24 11:10:51;;;;;;;7.28;2.50;;;;;;;6.73;41.98;100432.66;5075636;28;20077;-80
2023/02/24 11:18:57;;;;;;;7.50;2.47;;;;;;;6.67;42.98;100406.81;5090884;28;20044;-80
2023/02/24 11:21:27;;;;;;;5.30;2.35;;;;;;;6.67;42.90;100412.25;5095702;28;20083;-79
2023/02/24 11:24:01;;;;;;;7.05;2.40;;;;;;;6.66;42.93;100401.50;5093268;28;20043;-79
2023/02/24 11:26:35;;;;;;;5.95;2.35;;;;;;;6.64;42.53;100398.91;5076449;28;20040;-79
2023/02/24 11:29:26;;;;;;;5.22;2.47;;;;;;;6.63;42.95;100394.44;5073187;28;20055;-79
2023/02/24 11:32:08;;;;;;;6.32;2.47;;;;;;;6.61;43.05;100393.69;5113706;22;20059;-73
2023/02/24 11:34:48;;;;;;;7.60;2.30;;;;;;;6.60;42.93;100380.25;5092537;28;20055;-72
2023/02/24 11:37:33;;;;;;;7.30;2.30;;;;;;;6.59;42.90;100375.78;5093140;28;20431;-72
2023/02/24 11:40:07;;;;;;;5.88;2.33;;;;;;;6.55;43.25;100374.28;5093505;28;20043;-74
2023/02/24 11:42:40;;;;;;;5.88;2.40;;;;;;;6.53;43.34;100384.44;5112296;28;20522;-75
2023/02/24 11:45:25;;;;;;;8.27;2.25;;;;;;;6.49;43.61;100370.19;5093728;28;20122;-76
2023/02/24 11:47:57;;;;;;;7.05;2.17;;;;;;;6.47;43.41;100364.00;5113134;28;20176;-76
2023/02/24 11:50:42;;;;;;;8.32;2.40;;;;;;;6.45;43.92;100355.97;5111591;28;20060;-74
2023/02/24 11:53:20;;;;;;;5.57;2.67;;;;;;;6.45;43.77;100352.38;5112870;28;20449;-75
2023/02/24 11:55:57;;;;;;;10.32;3.08;;;;;;;6.42;43.88;100345.34;5093183;28;20407;-75
2023/02/24 11:58:33;;;;;;;6.75;2.63;;;;;;;6.41;43.76;100345.47;5113379;28;20043;-76
2023/02/24 12:01:08;;;;;;;6.70;2.65;;;;;;;6.40;43.75;100335.59;5093266;28;20520;-75
2023/02/24 12:03:44;;;;;;;5.97;2.60;;;;;;;6.38;44.25;100332.09;5112904;28;20122;-76
2023/02/24 12:06:19;;;;;;;6.00;2.85;;;;;;;6.35;44.21;100322.38;5112425;28;20122;-76
2023/02/24 12:08:52;;;;;;;6.57;2.92;;;;;;;6.35;44.02;100324.22;5093444;28;20050;-75
2023/02/24 12:11:31;;;;;;;6.20;3.00;;;;;;;6.34;44.41;100317.91;5112290;28;20036;-75
2023/02/24 12:14:13;;;;;;;8.63;2.83;;;;;;;6.34;44.21;100314.31;5110671;28;20096;-75
2023/02/24 12:16:46;;;;;;;6.35;2.63;;;;;;;6.31;44.48;100309.13;5111772;28;20414;-75
2023/02/24 12:19:19;;;;;;;8.52;2.92;;;;;;;6.29;44.50;100300.22;5093479;28;20060;-74